Time;durP1;ratioP1;P1;durP2;ratioP2;P2;SDS_P1;SDS_P2;PMS_P1;PMS_P2;Temp;Humidity;BMP_temperature;BMP_pressure;BME280_temperature;BME280_humidity;BME280_pressure;Samples;Min_cycle;Max_cycle;Signal;HPM_P1;HPM_P2
2023/04/02 00:02:23;;;;;;;8.00;6.80;;;;;;;4.77;72.24;99632.55;109636;1272;23061;-84
2023/04/02 00:05:20;;;;;;;10.30;9.20;;;;;;;4.72;72.33;99640.23;110331;1267;22140;-82
2023/04/02 00:08:00;;;;;;;14.20;8.80;;;;;;;4.69;72.44;99643.08;110511;1259;23693;-82
2023/04/02 00:11:15;;;;;;;8.00;7.00;;;;;;;4.69;72.44;99642.91;110171;1267;22446;-82
2023/04/02 00:13:53;;;;;;;10.20;9.20;;;;;;;4.67;72.51;99647.95;109896;1269;24323;-85
2023/04/02 00:16:28;;;;;;;9.00;8.20;;;;;;;4.67;72.40;99648.98;109685;1267;23612;-84
2023/04/02 00:19:37;;;;;;;10.60;9.50;;;;;;;4.65;72.34;99652.80;110492;1264;21974;-85
2023/04/02 00:22:44;;;;;;;11.90;9.40;;;;;;;4.66;72.52;99655.39;110669;1264;23807;-85
2023/04/02 00:25:15;;;;;;;12.60;11.40;;;;;;;4.67;72.50;99655.88;110610;1252;21978;-84
2023/04/02 00:27:56;;;;;;;14.80;13.30;;;;;;;4.71;72.58;99658.54;110540;1265;21984;-84
2023/04/02 00:30:34;;;;;;;13.10;11.80;;;;;;;4.75;72.50;99656.18;110364;1265;22725;-84
2023/04/02 00:33:15;;;;;;;8.90;8.10;;;;;;;4.78;72.40;99661.80;110430;1264;21981;-84
2023/04/02 00:35:54;;;;;;;9.30;8.40;;;;;;;4.73;72.16;99661.23;110465;1264;21972;-85
2023/04/02 00:38:32;;;;;;;9.00;8.10;;;;;;;4.68;72.16;99663.43;110546;1264;21976;-82
2023/04/02 00:41:15;;;;;;;9.00;8.10;;;;;;;4.67;72.21;99663.64;110617;1265;23087;-83
2023/04/02 00:44:04;;;;;;;8.90;8.00;;;;;;;4.64;72.15;99667.13;110502;1265;22018;-83
2023/04/02 00:46:48;;;;;;;10.80;9.20;;;;;;;4.60;72.15;99667.91;110034;1268;22819;-83
2023/04/02 00:49:26;;;;;;;8.30;7.50;;;;;;;4.56;72.23;99672.01;110115;1268;21954;-84
2023/04/02 00:52:02;;;;;;;9.30;8.00;;;;;;;4.55;72.35;99670.33;110930;1263;22385;-83
2023/04/02 00:55:22;;;;;;;14.80;8.90;;;;;;;4.57;72.56;99675.76;109800;1268;22730;-84
2023/04/02 00:58:08;;;;;;;10.10;9.10;;;;;;;4.56;72.46;99679.06;109734;1272;21974;-83
2023/04/02 01:00:39;;;;;;;9.00;8.10;;;;;;;4.55;72.46;99678.21;109643;1273;21986;-84
2023/04/02 01:03:34;;;;;;;8.60;7.90;;;;;;;4.53;72.30;99681.02;109452;1273;23057;-83
2023/04/02 01:06:17;;;;;;;9.20;8.40;;;;;;;4.49;72.34;99682.85;109424;1274;21995;-86
2023/04/02 01:09:49;;;;;;;7.60;7.00;;;;;;;4.47;72.35;99682.21;109543;1275;22473;-86
2023/04/02 01:13:11;;;;;;;6.50;6.00;;;;;;;4.40;72.42;99686.84;108744;1286;23688;-83
2023/04/02 01:16:31;;;;;;;6.80;6.20;;;;;;;4.33;72.49;99692.38;108440;1291;21999;-83
2023/04/02 01:20:23;;;;;;;6.60;6.00;;;;;;;4.43;72.40;99696.27;108082;1293;545705;-82
2023/04/02 01:23:21;;;;;;;7.60;6.90;;;;;;;4.35;72.54;99697.98;110269;1269;24505;-84
2023/04/02 01:26:17;;;;;;;8.60;7.80;;;;;;;4.33;72.74;99701.48;110078;1269;23118;-83
2023/04/02 01:29:14;;;;;;;8.70;7.90;;;;;;;4.35;72.72;99706.45;110292;1269;22027;-83
2023/04/02 01:31:54;;;;;;;6.40;5.80;;;;;;;4.30;72.59;99707.58;107669;1273;2310183;-81
2023/04/02 01:34:31;;;;;;;7.30;6.60;;;;;;;4.26;72.56;99710.93;109669;1273;23085;-86
2023/04/02 01:37:16;;;;;;;8.10;7.30;;;;;;;4.22;72.55;99714.98;109509;1273;22033;-84
2023/04/02 01:40:13;;;;;;;6.90;6.20;;;;;;;4.19;72.62;99719.37;109627;1273;22529;-83
2023/04/02 01:43:00;;;;;;;7.90;7.10;;;;;;;4.14;72.81;99721.86;109572;1271;22296;-84
2023/04/02 01:45:34;;;;;;;8.30;7.60;;;;;;;4.10;72.60;99726.26;109727;1261;22442;-85
2023/04/02 01:48:23;;;;;;;7.40;6.70;;;;;;;4.08;72.78;99729.07;109634;1272;22005;-85
2023/04/02 01:51:02;;;;;;;7.90;6.70;;;;;;;4.05;72.75;99732.75;110790;1263;23721;-85
2023/04/02 01:53:35;;;;;;;7.50;6.80;;;;;;;4.04;72.82;99733.81;110877;1263;21970;-85
2023/04/02 01:56:16;;;;;;;8.40;7.60;;;;;;;4.02;72.72;99735.57;111061;1261;21967;-83
2023/04/02 01:58:51;;;;;;;7.60;6.90;;;;;;;4.00;72.91;99737.31;111094;1255;21907;-83
2023/04/02 02:01:52;;;;;;;8.10;7.40;;;;;;;4.03;73.10;99740.19;111343;1256;21937;-84
2023/04/02 02:04:26;;;;;;;8.70;7.40;;;;;;;4.03;73.06;99744.30;111411;1256;22421;-82
2023/04/02 02:07:00;;;;;;;8.40;7.70;;;;;;;4.03;73.04;99743.80;111268;1256;23725;-82
2023/04/02 02:09:34;;;;;;;10.80;9.90;;;;;;;4.04;73.19;99744.13;111238;1256;22390;-82
2023/04/02 02:12:05;;;;;;;12.30;9.60;;;;;;;4.03;73.19;99747.59;111270;1256;21956;-82
2023/04/02 02:14:51;;;;;;;10.70;9.80;;;;;;;4.04;73.24;99743.08;111226;1256;21964;-83
2023/04/02 02:17:33;;;;;;;10.50;9.60;;;;;;;4.03;73.23;99748.63;111231;1256;24302;-84
2023/04/02 02:20:11;;;;;;;9.20;7.70;;;;;;;4.03;73.24;99753.10;111252;1256;23452;-83
2023/04/02 02:22:59;;;;;;;6.40;5.80;;;;;;;4.00;73.33;99757.48;111049;1260;21972;-82
2023/04/02 02:25:35;;;;;;;6.90;6.30;;;;;;;3.97;73.26;99760.62;111008;1260;22199;-82
2023/04/02 02:28:39;;;;;;;7.70;6.50;;;;;;;3.92;73.36;99765.19;111024;1260;21944;-83
2023/04/02 02:31:27;;;;;;;8.70;7.90;;;;;;;3.90;73.60;99766.09;110890;1260;21958;-82
2023/04/02 02:34:20;;;;;;;11.70;10.80;;;;;;;3.89;73.64;99765.25;110960;1260;21963;-83
2023/04/02 02:37:03;;;;;;;12.80;11.80;;;;;;;3.91;73.71;99767.98;111007;1260;21969;-83
2023/04/02 02:39:42;;;;;;;12.70;11.60;;;;;;;3.91;73.64;99770.73;110956;1261;22936;-83
2023/04/02 02:42:38;;;;;;;13.00;11.80;;;;;;;3.88;73.71;99775.27;110896;1261;23680;-83
2023/04/02 02:45:23;;;;;;;10.60;9.70;;;;;;;3.88;73.92;99778.88;110857;1261;23582;-83
2023/04/02 02:48:01;;;;;;;10.30;9.30;;;;;;;3.90;73.85;99783.66;111008;1256;22026;-84
2023/04/02 02:50:36;;;;;;;12.60;10.50;;;;;;;3.92;73.91;99788.79;110890;1260;21975;-83
2023/04/02 02:53:23;;;;;;;9.50;8.60;;;;;;;3.94;74.01;99788.23;111131;1256;22308;-83
2023/04/02 02:56:01;;;;;;;11.30;10.20;;;;;;;3.95;73.93;99789.59;111059;1259;22976;-83
2023/04/02 02:58:41;;;;;;;12.30;11.20;;;;;;;3.96;73.89;99793.02;110635;1260;22012;-83
2023/04/02 03:01:23;;;;;;;14.20;13.00;;;;;;;3.95;73.92;99792.17;111041;1259;22976;-83
2023/04/02 03:04:04;;;;;;;13.70;12.60;;;;;;;3.92;73.83;99796.70;111112;1259;21933;-80
2023/04/02 03:06:41;;;;;;;13.30;12.20;;;;;;;3.94;73.96;99800.97;110364;1264;23622;-79
2023/04/02 03:09:43;;;;;;;12.30;11.20;;;;;;;3.96;73.94;99807.31;110516;1264;21957;-84
2023/04/02 03:13:11;;;;;;;13.70;10.90;;;;;;;3.93;73.95;99807.18;110853;1257;21962;-83
2023/04/02 03:16:33;;;;;;;10.10;9.20;;;;;;;3.91;74.13;99810.83;110295;1269;23594;-82
2023/04/02 03:19:43;;;;;;;9.50;8.50;;;;;;;3.93;74.19;99818.05;109426;1275;22032;-83
2023/04/02 03:23:14;;;;;;;9.70;8.70;;;;;;;3.95;74.21;99817.14;108989;1278;23612;-83
2023/04/02 03:26:07;;;;;;;10.00;9.00;;;;;;;3.94;74.03;99814.91;109164;1277;23631;-84
2023/04/02 03:29:05;;;;;;;9.90;9.10;;;;;;;3.95;73.98;99820.75;109334;1268;21830;-84
2023/04/02 03:32:04;;;;;;;8.40;7.60;;;;;;;3.93;73.86;99829.06;109362;1277;23056;-84
2023/04/02 03:34:43;;;;;;;8.20;7.30;;;;;;;3.92;73.78;99830.29;109319;1273;21984;-84
2023/04/02 03:37:38;;;;;;;9.60;8.70;;;;;;;3.89;73.73;99834.80;109639;1273;22489;-82
2023/04/02 03:40:44;;;;;;;7.70;7.00;;;;;;;3.84;73.67;99838.34;109833;1264;22723;-82
2023/04/02 03:43:28;;;;;;;6.90;6.30;;;;;;;3.81;73.73;99845.97;110333;1268;23592;-84
2023/04/02 03:46:33;;;;;;;8.20;7.00;;;;;;;3.81;73.78;99849.77;110334;1263;22010;-83
2023/04/02 03:49:35;;;;;;;7.10;6.50;;;;;;;3.83;73.84;99853.50;109216;1280;21988;-82
2023/04/02 03:52:27;;;;;;;6.20;5.70;;;;;;;3.85;73.83;99858.98;109292;1276;22010;-82
2023/04/02 03:55:17;;;;;;;7.60;6.90;;;;;;;3.85;73.69;99864.48;109293;1276;21990;-82
2023/04/02 03:58:10;;;;;;;7.10;6.50;;;;;;;3.83;73.56;99870.20;110119;1269;21995;-83
2023/04/02 04:01:16;;;;;;;6.50;5.90;;;;;;;3.86;73.66;99874.63;109996;1269;22108;-84
2023/04/02 04:04:09;;;;;;;7.80;6.90;;;;;;;3.86;73.52;99879.10;110122;1265;22189;-87
2023/04/02 04:06:51;;;;;;;8.80;7.20;;;;;;;3.88;73.52;99882.50;110205;1262;22034;-85
2023/04/02 04:09:36;;;;;;;7.10;6.50;;;;;;;3.92;73.51;99885.36;110775;1262;21968;-83
2023/04/02 04:12:39;;;;;;;7.70;6.90;;;;;;;3.91;73.30;99891.39;110571;1262;21958;-84
2023/04/02 04:15:30;;;;;;;8.10;7.40;;;;;;;3.89;73.26;99894.19;111019;1254;21987;-86
2023/04/02 04:18:38;;;;;;;8.70;7.80;;;;;;;3.89;73.14;99899.70;110622;1262;21993;-85
2023/04/02 04:21:46;;;;;;;8.30;7.50;;;;;;;3.89;73.08;99902.98;110892;1262;21965;-82
2023/04/02 04:24:26;;;;;;;;;;;;;;;3.85;73.01;99910.95;110779;1262;21980;-83
2023/04/02 04:27:17;;;;;;;8.10;7.40;;;;;;;3.76;73.09;99916.79;111353;1255;22943;-82
2023/04/02 04:30:13;;;;;;;8.30;7.50;;;;;;;3.78;72.92;99921.08;111579;1255;21960;-82
2023/04/02 04:33:09;;;;;;;7.80;7.10;;;;;;;3.80;72.99;99931.52;111521;1255;23749;-81
2023/04/02 04:35:54;;;;;;;7.00;6.00;;;;;;;3.83;72.83;99936.82;111328;1256;21978;-84
2023/04/02 04:38:33;;;;;;;6.00;5.50;;;;;;;3.84;72.87;99939.55;111316;1255;21954;-81
2023/04/02 04:41:27;;;;;;;7.50;5.60;;;;;;;3.88;72.75;99940.86;110907;1260;22005;-81
2023/04/02 04:44:39;;;;;;;5.60;4.90;;;;;;;3.90;72.66;99949.61;111023;1260;21970;-82
2023/04/02 04:47:33;;;;;;;6.70;6.00;;;;;;;3.88;72.40;99952.75;110982;1260;22447;-82
2023/04/02 04:50:31;;;;;;;7.20;6.50;;;;;;;3.85;72.36;99951.92;110862;1260;22017;-82
2023/04/02 04:53:21;;;;;;;6.50;6.00;;;;;;;3.87;72.38;99956.04;111079;1260;21956;-82
2023/04/02 04:56:01;;;;;;;7.70;6.90;;;;;;;3.88;72.31;99959.29;111034;1261;23682;-82
2023/04/02 04:59:22;;;;;;;7.10;5.90;;;;;;;3.87;72.27;99965.33;111002;1254;21963;-83
2023/04/02 05:02:21;;;;;;;6.10;5.50;;;;;;;3.87;72.20;99970.48;111517;1254;21972;-83
2023/04/02 05:04:59;;;;;;;9.30;6.00;;;;;;;3.86;72.04;99979.30;111700;1254;21926;-85
2023/04/02 05:08:00;;;;;;;7.80;5.70;;;;;;;3.87;72.12;99983.75;111640;1255;21958;-85
2023/04/02 05:10:57;;;;;;;7.70;6.50;;;;;;;3.90;72.03;99984.56;111583;1255;21969;-84
2023/04/02 05:13:43;;;;;;;6.30;5.70;;;;;;;3.91;71.87;99986.77;111319;1255;21975;-82
2023/04/02 05:16:58;;;;;;;5.20;4.70;;;;;;;3.92;71.85;99992.80;111721;1255;21960;-82
2023/04/02 05:19:58;;;;;;;7.80;7.00;;;;;;;3.95;71.86;99996.70;110928;1263;22125;-83
2023/04/02 05:23:10;;;;;;;8.60;6.50;;;;;;;3.99;71.84;100001.45;110875;1264;21998;-82
2023/04/02 05:26:19;;;;;;;;;;;;;;;4.00;71.74;100004.88;110880;1264;23677;-83
2023/04/02 05:28:53;;;;;;;6.20;5.60;;;;;;;3.97;71.89;100008.90;110936;1256;23586;-82
2023/04/02 05:31:42;;;;;;;6.10;5.60;;;;;;;3.98;71.75;100014.73;110969;1264;22433;-81
2023/04/02 05:34:31;;;;;;;;;;;;;;;3.97;71.56;100018.54;110590;1264;21951;-83
2023/04/02 05:37:25;;;;;;;6.40;5.90;;;;;;;3.93;71.70;100022.04;110090;1270;21972;-83
2023/04/02 05:40:06;;;;;;;7.00;6.30;;;;;;;3.93;71.64;100023.92;109719;1270;21982;-83
2023/04/02 05:42:41;;;;;;;6.80;6.30;;;;;;;3.97;71.52;100024.23;110112;1270;21929;-83
2023/04/02 05:45:15;;;;;;;7.10;6.40;;;;;;;3.98;71.31;100027.11;109579;1273;21752;-82
2023/04/02 05:47:52;;;;;;;8.10;7.40;;;;;;;3.98;71.26;100030.40;109682;1273;21813;-84
2023/04/02 05:50:38;;;;;;;7.20;6.40;;;;;;;4.01;71.33;100034.48;109488;1273;21976;-82
2023/04/02 05:54:08;;;;;;;6.20;5.30;;;;;;;4.09;71.45;100035.39;109598;1273;22642;-81
2023/04/02 05:56:51;;;;;;;5.60;5.10;;;;;;;4.12;71.30;100039.46;109862;1270;23065;-84
2023/04/02 05:59:37;;;;;;;7.00;6.20;;;;;;;4.17;71.31;100040.61;109866;1269;21967;-80
2023/04/02 06:02:41;;;;;;;6.50;5.40;;;;;;;4.19;71.19;100042.11;109899;1270;21982;-82
2023/04/02 06:05:25;;;;;;;7.10;6.40;;;;;;;4.19;71.05;100047.30;110323;1267;21964;-79
2023/04/02 06:08:10;;;;;;;8.40;7.70;;;;;;;4.20;71.01;100056.73;110294;1267;23696;-82
2023/04/02 06:11:01;;;;;;;9.90;8.90;;;;;;;4.20;70.95;100056.90;110217;1266;21966;-80
2023/04/02 06:13:43;;;;;;;10.00;8.50;;;;;;;4.22;70.88;100059.98;110582;1266;22368;-81
2023/04/02 06:16:32;;;;;;;10.10;9.20;;;;;;;4.22;70.95;100057.91;110161;1264;23033;-81
2023/04/02 06:19:21;;;;;;;10.70;9.40;;;;;;;4.22;70.58;100064.11;109988;1266;21976;-81
2023/04/02 06:22:08;;;;;;;15.90;11.20;;;;;;;4.21;70.59;100071.19;110654;1266;21965;-81
2023/04/02 06:24:54;;;;;;;13.60;12.20;;;;;;;4.21;70.64;100072.74;109832;1269;21985;-82
2023/04/02 06:27:34;;;;;;;14.20;12.50;;;;;;;4.25;70.80;100086.45;110088;1269;22910;-78
2023/04/02 06:30:22;;;;;;;19.90;14.10;;;;;;;4.26;70.70;100089.03;110062;1260;21936;-79
2023/04/02 06:33:15;;;;;;;14.60;13.10;;;;;;;4.26;70.70;100094.88;111210;1260;21958;-80
2023/04/02 06:35:50;;;;;;;12.40;11.10;;;;;;;4.24;70.55;100098.17;110730;1265;22721;-78
2023/04/02 06:38:36;;;;;;;12.20;11.00;;;;;;;4.20;70.39;100106.35;110835;1264;23024;-79
2023/04/02 06:41:26;;;;;;;9.20;8.30;;;;;;;4.21;70.60;100107.88;110584;1264;21975;-79
2023/04/02 06:44:26;;;;;;;8.30;7.60;;;;;;;4.13;70.39;100114.38;110745;1260;22983;-78
2023/04/02 06:47:43;;;;;;;9.10;8.30;;;;;;;4.04;70.25;100115.71;111037;1260;23703;-79
2023/04/02 06:51:09;;;;;;;9.40;8.40;;;;;;;3.98;70.45;100124.07;110915;1260;21983;-80
2023/04/02 06:53:55;;;;;;;8.10;6.90;;;;;;;3.93;70.40;100129.30;111243;1255;21963;-80
2023/04/02 06:56:45;;;;;;;8.70;7.80;;;;;;;3.90;70.48;100132.09;111468;1254;21959;-80
2023/04/02 06:59:26;;;;;;;8.00;7.10;;;;;;;3.88;70.57;100135.73;111548;1255;23681;-80
2023/04/02 07:02:13;;;;;;;8.30;7.50;;;;;;;3.89;70.52;100141.41;111577;1254;22142;-78
2023/04/02 07:05:07;;;;;;;8.40;7.50;;;;;;;3.87;70.42;100143.84;110861;1261;22009;-80
2023/04/02 07:07:55;;;;;;;9.00;8.20;;;;;;;3.87;70.56;100147.63;110795;1261;22066;-80
2023/04/02 07:10:41;;;;;;;10.70;9.60;;;;;;;3.89;70.60;100153.97;110800;1261;23603;-80
2023/04/02 07:13:42;;;;;;;10.60;9.30;;;;;;;3.94;70.72;100158.90;111046;1261;23066;-79
2023/04/02 07:16:23;;;;;;;10.90;9.80;;;;;;;3.94;70.46;100166.14;111033;1261;22468;-80
2023/04/02 07:19:29;;;;;;;;;;;;;;;;;;;;;
2023/04/02 07:22:18;;;;;;;11.00;8.80;;;;;;;3.97;70.36;100171.77;110748;1255;21996;-79
2023/04/02 07:25:10;;;;;;;8.60;7.80;;;;;;;3.95;70.38;100175.42;111649;1254;22482;-79
2023/04/02 07:28:05;;;;;;;13.20;8.60;;;;;;;3.97;70.53;100178.65;111365;1255;23619;-79
2023/04/02 07:30:43;;;;;;;10.00;8.90;;;;;;;4.01;70.35;100177.41;111257;1255;21962;-80
2023/04/02 07:33:22;;;;;;;8.10;7.30;;;;;;;4.03;70.19;100182.72;111575;1254;21956;-79
2023/04/02 07:36:00;;;;;;;9.60;8.60;;;;;;;4.02;70.12;100189.95;111347;1254;21962;-79
2023/04/02 07:38:42;;;;;;;9.20;8.20;;;;;;;4.03;70.24;100196.66;111340;1255;24145;-77
2023/04/02 07:41:25;;;;;;;12.00;10.50;;;;;;;4.06;70.32;100200.25;111092;1260;23728;-80
2023/04/02 07:43:55;;;;;;;13.40;12.10;;;;;;;4.11;70.25;100200.16;110806;1260;22121;-78
2023/04/02 07:46:26;;;;;;;9.80;8.80;;;;;;;4.15;70.28;100199.43;110609;1260;21980;-79
2023/04/02 07:49:02;;;;;;;10.80;8.80;;;;;;;4.18;70.31;100204.55;110993;1260;21993;-78
2023/04/02 07:51:47;;;;;;;9.80;8.40;;;;;;;4.23;70.38;100211.55;110805;1260;23591;-80
2023/04/02 07:54:34;;;;;;;10.80;9.20;;;;;;;4.27;70.38;100212.00;110986;1260;22408;-81
2023/04/02 07:57:24;;;;;;;7.50;6.70;;;;;;;4.34;70.43;100217.95;111118;1260;21959;-82
2023/04/02 08:00:00;;;;;;;9.00;7.90;;;;;;;4.33;70.15;100220.89;111283;1255;21972;-83
2023/04/02 08:02:33;;;;;;;9.00;7.50;;;;;;;4.34;70.09;100226.71;111109;1260;21964;-82
2023/04/02 08:05:29;;;;;;;10.10;8.80;;;;;;;4.36;70.26;100231.35;110946;1259;21978;-83
2023/04/02 08:08:05;;;;;;;7.10;6.40;;;;;;;4.40;70.33;100239.20;110809;1260;22214;-81
2023/04/02 08:10:37;;;;;;;8.80;7.30;;;;;;;4.37;70.01;100240.46;110758;1253;23034;-81
2023/04/02 08:13:16;;;;;;;9.40;7.00;;;;;;;4.29;69.72;100243.48;111060;1260;23680;-82
2023/04/02 08:16:03;;;;;;;6.90;6.10;;;;;;;4.22;69.85;100245.67;110958;1258;22026;-81
2023/04/02 08:18:39;;;;;;;8.70;6.80;;;;;;;4.22;70.05;100248.93;110572;1260;21983;-81
2023/04/02 08:21:31;;;;;;;7.20;6.40;;;;;;;4.24;70.13;100249.24;111295;1255;23014;-81
2023/04/02 08:24:07;;;;;;;9.10;6.80;;;;;;;4.28;70.32;100249.88;111059;1260;21975;-80
2023/04/02 08:26:39;;;;;;;27.20;24.50;;;;;;;4.32;70.20;100253.63;110729;1264;21986;-81
2023/04/02 08:29:11;;;;;;;25.70;23.20;;;;;;;4.33;69.96;100254.14;110203;1263;22982;-81
2023/04/02 08:31:48;;;;;;;9.00;8.10;;;;;;;4.36;70.32;100254.25;110532;1263;21963;-82
2023/04/02 08:34:47;;;;;;;7.60;6.80;;;;;;;4.48;70.39;100261.68;110589;1264;22054;-79
2023/04/02 08:37:34;;;;;;;8.00;6.90;;;;;;;4.58;70.31;100264.12;110444;1263;22073;-78
2023/04/02 08:40:17;;;;;;;7.80;6.60;;;;;;;4.65;70.09;100265.55;110618;1264;21987;-80
2023/04/02 08:43:50;;;;;;;10.10;6.90;;;;;;;4.70;69.92;100265.66;111646;1246;22418;-86
2023/04/02 08:47:04;;;;;;;7.90;6.50;;;;;;;4.62;69.39;100269.56;111750;1254;21957;-82
2023/04/02 08:49:54;;;;;;;8.80;6.70;;;;;;;4.60;69.49;100278.73;111371;1256;21957;-84
2023/04/02 08:52:39;;;;;;;9.30;8.10;;;;;;;4.61;69.31;100281.31;111300;1255;21934;-84
2023/04/02 08:55:32;;;;;;;;;;;;;;;4.66;69.64;100281.23;111445;1256;21921;-81
2023/04/02 08:58:44;;;;;;;11.80;10.60;;;;;;;4.75;70.16;100284.89;111476;1255;21975;-84
2023/04/02 09:01:50;;;;;;;7.90;6.20;;;;;;;4.90;69.96;100287.94;111496;1249;22015;-84
2023/04/02 09:04:26;;;;;;;7.00;6.30;;;;;;;4.99;69.58;100292.13;111094;1254;21972;-83
2023/04/02 09:07:03;;;;;;;8.70;7.50;;;;;;;5.03;69.31;100299.63;111007;1261;23583;-84
2023/04/02 09:09:37;;;;;;;9.90;7.80;;;;;;;5.10;69.16;100300.58;110690;1261;23064;-83
2023/04/02 09:12:32;;;;;;;8.80;7.70;;;;;;;5.12;68.67;100302.61;110879;1261;21967;-84
2023/04/02 09:15:33;;;;;;;15.00;11.20;;;;;;;5.08;68.56;100304.21;110720;1258;22040;-84
2023/04/02 09:18:19;;;;;;;10.20;9.10;;;;;;;5.08;68.60;100311.81;110788;1261;23763;-83
2023/04/02 09:20:53;;;;;;;11.20;9.90;;;;;;;5.05;68.30;100312.71;110596;1262;21972;-83
2023/04/02 09:23:27;;;;;;;9.70;8.40;;;;;;;5.04;68.05;100319.80;110744;1251;23066;-84
2023/04/02 09:25:59;;;;;;;12.10;8.70;;;;;;;5.03;67.86;100324.83;110708;1261;21972;-84
2023/04/02 09:28:54;;;;;;;7.00;6.00;;;;;;;5.02;67.78;100335.01;111022;1261;21999;-83
2023/04/02 09:31:48;;;;;;;9.40;6.90;;;;;;;4.99;67.62;100337.14;111142;1262;23040;-87
2023/04/02 09:34:33;;;;;;;7.60;5.50;;;;;;;4.95;67.47;100345.65;111067;1261;21976;-83
2023/04/02 09:37:24;;;;;;;9.90;8.00;;;;;;;4.93;67.43;100352.41;111319;1261;21971;-82
2023/04/02 09:40:31;;;;;;;8.40;7.00;;;;;;;4.85;67.17;100354.40;111288;1261;21967;-84
2023/04/02 09:43:28;;;;;;;8.00;6.70;;;;;;;4.82;67.37;100356.86;111878;1255;22972;-84
2023/04/02 09:46:36;;;;;;;11.60;8.20;;;;;;;4.86;67.67;100364.39;111728;1255;21965;-82
2023/04/02 09:49:40;;;;;;;11.60;8.80;;;;;;;4.92;67.72;100366.54;111773;1256;21983;-84
2023/04/02 09:52:28;;;;;;;8.40;7.60;;;;;;;4.99;67.79;100371.45;111382;1255;22086;-84
2023/04/02 09:55:14;;;;;;;10.00;8.40;;;;;;;5.11;67.86;100368.00;111295;1255;23047;-83
2023/04/02 09:57:50;;;;;;;12.10;10.10;;;;;;;5.21;67.93;100371.11;111384;1256;21965;-85
2023/04/02 10:00:28;;;;;;;6.10;5.50;;;;;;;5.30;67.55;100374.96;111427;1257;23621;-84
2023/04/02 10:03:17;;;;;;;6.10;5.30;;;;;;;5.29;66.87;100377.38;111616;1254;21972;-83
2023/04/02 10:06:06;;;;;;;11.10;8.40;;;;;;;5.19;66.48;100383.23;111462;1256;22633;-83
2023/04/02 10:09:00;;;;;;;9.90;8.90;;;;;;;5.14;66.40;100387.44;111340;1254;21962;-85
2023/04/02 10:11:35;;;;;;;10.40;7.70;;;;;;;5.10;66.29;100391.98;111484;1257;21975;-85
2023/04/02 10:14:24;;;;;;;8.30;7.50;;;;;;;5.09;66.45;100393.02;111348;1257;21979;-83
2023/04/02 10:17:41;;;;;;;10.70;8.30;;;;;;;5.13;66.63;100394.70;111656;1255;23625;-82
2023/04/02 10:20:32;;;;;;;10.10;7.00;;;;;;;5.17;66.56;100402.59;111412;1261;22717;-83
2023/04/02 10:23:58;;;;;;;6.10;5.40;;;;;;;5.14;66.30;100403.83;111084;1261;22046;-83
2023/04/02 10:27:20;;;;;;;9.80;7.00;;;;;;;5.07;66.18;100409.09;110836;1262;23031;-83
2023/04/02 10:30:19;;;;;;;9.30;7.10;;;;;;;5.06;66.27;100414.29;111076;1250;21983;-84
2023/04/02 10:33:32;;;;;;;10.10;6.70;;;;;;;5.01;65.98;100418.16;111187;1261;21975;-82
2023/04/02 10:36:59;;;;;;;9.60;8.60;;;;;;;5.03;66.39;100419.86;110569;1267;23813;-83
2023/04/02 10:40:25;;;;;;;7.90;6.90;;;;;;;5.19;66.65;100419.47;110601;1267;22948;-83
2023/04/02 10:43:45;;;;;;;7.40;6.50;;;;;;;5.25;66.10;100425.92;111114;1265;22048;-83
2023/04/02 10:47:25;;;;;;;;;;;;;;;;;;;;;
2023/04/02 10:51:23;;;;;;;15.20;9.80;;;;;;;5.26;65.64;100432.30;110621;1267;23053;-85
2023/04/02 10:54:37;;;;;;;19.40;12.00;;;;;;;5.21;65.55;100433.40;110453;1267;22307;-85
2023/04/02 10:57:39;;;;;;;14.60;9.60;;;;;;;5.21;65.64;100436.67;110212;1268;22178;-86
2023/04/02 11:00:48;;;;;;;12.90;8.90;;;;;;;5.24;65.59;100442.52;110625;1265;21967;-83
2023/04/02 11:04:15;;;;;;;11.70;7.90;;;;;;;5.18;65.40;100443.96;110210;1271;21971;-85
2023/04/02 11:07:11;;;;;;;9.00;6.30;;;;;;;5.15;65.47;100447.64;109982;1267;22115;-82
2023/04/02 11:09:53;;;;;;;8.50;6.40;;;;;;;5.14;65.32;100450.42;110356;1268;21970;-85
2023/04/02 11:12:45;;;;;;;8.50;5.40;;;;;;;5.16;65.25;100452.29;109720;1274;23599;-82
2023/04/02 11:15:46;;;;;;;;;;;;;;;;;;;;;
2023/04/02 11:18:37;;;;;;;5.20;3.70;;;;;;;5.15;64.93;100462.13;110185;1269;22070;-84
2023/04/02 11:21:45;;;;;;;8.40;4.60;;;;;;;5.17;65.13;100468.48;110472;1270;21770;-87
2023/04/02 11:24:50;;;;;;;5.20;3.70;;;;;;;5.28;65.40;100473.16;110356;1268;21991;-85
2023/04/02 11:27:43;;;;;;;6.40;3.80;;;;;;;5.40;65.01;100474.03;109988;1271;23043;-85
2023/04/02 11:30:27;;;;;;;4.90;3.70;;;;;;;5.36;64.31;100481.16;110188;1270;22007;-83
2023/04/02 11:33:42;;;;;;;5.20;3.50;;;;;;;5.27;64.14;100484.05;109859;1270;23860;-82
2023/04/02 11:36:53;;;;;;;9.30;6.50;;;;;;;5.22;64.20;100487.05;109823;1267;21967;-84
2023/04/02 11:39:57;;;;;;;6.50;3.70;;;;;;;5.15;64.08;100491.27;110065;1271;23714;-84
2023/04/02 11:42:45;;;;;;;7.90;6.30;;;;;;;5.01;64.04;100493.02;110553;1265;21945;-81
2023/04/02 11:45:22;;;;;;;8.90;5.80;;;;;;;4.98;64.49;100497.02;110447;1266;24352;-80
2023/04/02 11:47:58;;;;;;;9.70;6.00;;;;;;;5.04;64.94;100498.15;110296;1262;21998;-80
2023/04/02 11:50:40;;;;;;;8.30;5.30;;;;;;;5.13;65.01;100503.22;110346;1267;21964;-80
2023/04/02 11:53:32;;;;;;;12.90;7.10;;;;;;;5.19;64.99;100505.55;109487;1269;22096;-80
2023/04/02 11:56:54;;;;;;;5.20;3.70;;;;;;;5.26;65.08;100511.48;109607;1270;22611;-81
2023/04/02 12:00:00;;;;;;;30.10;25.00;;;;;;;5.23;64.72;100517.06;109773;1271;23597;-81
2023/04/02 12:02:58;;;;;;;5.80;5.00;;;;;;;5.25;64.92;100522.04;109692;1271;21975;-79
2023/04/02 12:05:47;;;;;;;8.20;6.40;;;;;;;5.25;64.78;100529.63;109769;1266;23089;-80
2023/04/02 12:09:20;;;;;;;10.90;6.60;;;;;;;5.20;64.91;100530.39;110080;1265;23720;-81
2023/04/02 12:12:15;;;;;;;11.10;7.90;;;;;;;5.21;65.13;100532.27;110478;1263;21929;-83
2023/04/02 12:14:51;;;;;;;11.50;8.70;;;;;;;5.20;64.99;100539.36;109843;1270;21976;-86
2023/04/02 12:17:44;;;;;;;8.50;7.10;;;;;;;5.18;64.91;100538.85;109983;1270;23840;-86
2023/04/02 12:20:31;;;;;;;7.50;6.30;;;;;;;5.17;65.31;100540.08;109804;1269;22806;-82
2023/04/02 12:23:52;;;;;;;11.30;8.30;;;;;;;5.20;65.34;100545.05;109950;1268;21990;-79
2023/04/02 12:26:41;;;;;;;8.60;6.60;;;;;;;5.17;64.98;100546.30;110098;1268;21987;-85
2023/04/02 12:29:50;;;;;;;8.00;6.50;;;;;;;5.15;65.06;100549.42;109334;1274;21999;-86
2023/04/02 12:32:58;;;;;;;8.40;7.50;;;;;;;5.21;65.54;100549.87;109785;1268;21975;-82
2023/04/02 12:35:42;;;;;;;9.70;6.50;;;;;;;5.36;65.82;100552.09;109739;1271;22827;-83
2023/04/02 12:38:54;;;;;;;11.60;9.80;;;;;;;5.50;65.66;100552.26;109837;1272;21832;-84
2023/04/02 12:41:50;;;;;;;9.30;8.00;;;;;;;5.56;65.52;100562.36;109977;1275;21992;-89
2023/04/02 12:45:20;;;;;;;9.70;6.60;;;;;;;5.51;65.10;100577.10;109866;1278;21993;-89
2023/04/02 12:48:10;;;;;;;7.70;6.10;;;;;;;5.24;64.65;100581.91;109712;1271;21985;-88
2023/04/02 12:51:23;;;;;;;7.50;4.90;;;;;;;5.01;65.11;100581.49;110060;1275;23612;-87
2023/04/02 12:54:17;;;;;;;8.40;6.20;;;;;;;4.92;65.77;100589.88;109981;1271;22021;-87
2023/04/02 12:57:34;;;;;;;7.50;5.00;;;;;;;4.93;66.50;100585.55;110013;1271;21949;-87
2023/04/02 13:00:24;;;;;;;4.80;3.80;;;;;;;4.95;66.85;100584.85;110043;1267;21968;-88
2023/04/02 13:03:38;;;;;;;5.10;4.40;;;;;;;4.97;67.09;100586.54;111028;1264;22034;-89
2023/04/02 13:07:27;;;;;;;;;;;;;;;;;;;;;
2023/04/02 13:10:55;;;;;;;8.80;6.40;;;;;;;4.98;67.85;100591.71;110527;1272;21976;-89
2023/04/02 13:14:19;;;;;;;;;;;;;;;;;;;;;
2023/04/02 13:18:12;;;;;;;7.20;6.30;;;;;;;5.01;68.10;100597.02;110464;1272;21974;-90
2023/04/02 13:21:41;;;;;;;9.50;6.30;;;;;;;4.98;68.18;100603.09;111680;1263;21987;-91
2023/04/02 13:24:35;;;;;;;6.30;5.20;;;;;;;4.92;68.14;100606.09;111036;1263;23710;-91
2023/04/02 13:28:00;;;;;;;9.10;6.30;;;;;;;4.90;68.53;100603.70;110993;1263;23960;-84
2023/04/02 13:30:54;;;;;;;10.70;8.60;;;;;;;4.95;68.86;100607.79;110657;1263;22425;-87
2023/04/02 13:33:27;;;;;;;9.20;7.50;;;;;;;5.02;69.01;100614.78;105816;1267;6033317;-84
2023/04/02 13:35:58;;;;;;;7.70;6.90;;;;;;;5.10;69.04;100613.31;110151;1267;21988;-85